createdAt,value
2019-06-08T00:02:08.545Z,73.92
2019-06-08T00:04:39.616Z,73.31
2019-06-08T00:07:09.816Z,73.74
2019-06-08T00:09:41.066Z,74.32
2019-06-08T00:12:12.952Z,74.30
2019-06-08T00:14:44.290Z,74.24
2019-06-08T00:17:30.308Z,74.70
2019-06-08T00:19:48.323Z,74.94
2019-06-08T00:22:19.791Z,75.30
2019-06-08T00:24:51.024Z,75.60
2019-06-08T00:27:23.052Z,75.65
2019-06-08T00:29:54.940Z,76.19
2019-06-08T00:32:26.104Z,76.26
2019-06-08T00:34:57.478Z,76.23
2019-06-08T00:37:28.463Z,76.55
2019-06-08T00:39:58.652Z,75.94
2019-06-08T00:42:29.975Z,76.00
2019-06-08T00:45:01.264Z,76.33
2019-06-08T00:47:47.049Z,76.48
2019-06-08T00:50:08.542Z,76.54
2019-06-08T00:52:39.788Z,77.30
2019-06-08T00:55:10.968Z,77.90
2019-06-08T00:57:42.185Z,77.93
2019-06-08T01:00:13.381Z,78.30
2019-06-08T01:02:44.579Z,78.78
2019-06-08T01:05:15.641Z,79.07
2019-06-08T01:07:46.990Z,78.60
2019-06-08T01:10:19.217Z,78.39
2019-06-08T01:12:50.534Z,77.87
2019-06-08T01:15:27.735Z,77.36
2019-06-08T01:18:02.683Z,77.02
2019-06-08T01:20:27.519Z,76.62
2019-06-08T01:22:58.718Z,76.20
2019-06-08T01:25:30.153Z,75.83
2019-06-08T01:28:01.061Z,75.94
2019-06-08T01:30:32.545Z,76.13
2019-06-08T01:33:03.654Z,75.50
2019-06-08T01:35:34.929Z,75.50
2019-06-08T01:38:06.048Z,75.60
2019-06-08T01:40:37.486Z,75.68
2019-06-08T01:43:08.395Z,75.95
2019-06-08T01:45:39.657Z,76.10
2019-06-08T01:48:20.140Z,76.48
2019-06-08T01:50:42.723Z,76.44
2019-06-08T01:53:13.951Z,77.04
2019-06-08T01:55:44.982Z,77.01
2019-06-08T01:58:16.160Z,77.08
2019-06-08T02:00:47.362Z,76.89
2019-06-08T02:03:18.680Z,76.96
2019-06-08T02:05:49.760Z,76.61
2019-06-08T02:08:20.901Z,76.39
2019-06-08T02:10:51.897Z,76.20
2019-06-08T02:13:22.970Z,76.69
2019-06-08T02:15:54.019Z,76.52
2019-06-08T02:18:36.327Z,76.49
2019-06-08T02:20:58.063Z,76.09
2019-06-08T02:23:31.108Z,76.14
2019-06-08T02:26:02.252Z,76.31
2019-06-08T02:28:33.555Z,75.97
2019-06-08T02:31:05.064Z,75.64
2019-06-08T02:33:37.346Z,75.70
2019-06-08T02:36:08.771Z,75.65
2019-06-08T02:38:39.841Z,75.89
2019-06-08T02:41:11.067Z,75.82
2019-06-08T02:43:42.145Z,75.68
2019-06-08T02:46:13.373Z,75.55
2019-06-08T02:49:02.441Z,75.30
2019-06-08T02:51:18.087Z,75.44
2019-06-08T02:53:49.924Z,75.62
2019-06-08T02:56:23.771Z,75.71
2019-06-08T02:58:57.983Z,75.70
2019-06-08T03:01:31.302Z,75.78
2019-06-08T03:04:02.897Z,75.23
2019-06-08T03:06:38.898Z,75.29
2019-06-08T03:09:09.749Z,75.24
2019-06-08T03:11:42.000Z,75.02
2019-06-08T03:14:13.540Z,75.24
2019-06-08T03:16:44.576Z,75.02
2019-06-08T03:19:21.899Z,74.30
2019-06-08T03:21:48.636Z,74.21
2019-06-08T03:24:19.801Z,73.61
2019-06-08T03:26:50.829Z,73.11
2019-06-08T03:29:22.023Z,72.96
2019-06-08T03:31:56.395Z,72.82
2019-06-08T03:34:25.922Z,72.32
2019-06-08T03:36:57.695Z,71.91
2019-06-08T03:39:28.105Z,71.71
2019-06-08T03:41:59.370Z,71.72
2019-06-08T03:44:30.416Z,71.73
2019-06-08T03:47:01.591Z,71.62
2019-06-08T03:49:44.949Z,71.91
2019-06-08T03:52:05.519Z,71.83
2019-06-08T03:54:38.902Z,72.26
2019-06-08T03:57:09.258Z,73.29
2019-06-08T03:59:41.064Z,73.64
2019-06-08T04:02:13.098Z,73.38
2019-06-08T04:04:46.073Z,73.05
2019-06-08T04:07:16.842Z,72.92
2019-06-08T04:09:47.874Z,72.45
2019-06-08T04:12:18.165Z,71.76
2019-06-08T04:14:50.494Z,71.72
2019-06-08T04:17:21.552Z,71.63
2019-06-08T04:20:09.425Z,71.64
2019-06-08T04:22:25.560Z,71.81
2019-06-08T04:24:56.901Z,71.88
2019-06-08T04:27:27.879Z,71.95
2019-06-08T04:29:59.059Z,72.02
2019-06-08T04:32:30.212Z,72.14
2019-06-08T04:35:01.447Z,71.80
2019-06-08T04:37:32.743Z,71.98
2019-06-08T04:40:06.295Z,74.46
2019-06-08T04:42:39.232Z,76.78
2019-06-08T04:45:11.066Z,78.96
2019-06-08T04:47:43.632Z,79.70
2019-06-08T04:50:22.471Z,81.40
2019-06-08T04:52:48.041Z,81.25
2019-06-08T04:55:19.944Z,80.72
2019-06-08T04:57:51.100Z,80.63
2019-06-08T05:00:22.246Z,81.95
2019-06-08T05:02:53.967Z,82.18
2019-06-08T05:05:25.020Z,82.47
2019-06-08T05:07:56.224Z,81.27
2019-06-08T05:10:27.190Z,81.47
2019-06-08T05:12:58.545Z,81.76
2019-06-08T05:15:29.416Z,82.61
2019-06-08T05:18:00.710Z,81.32
2019-06-08T05:20:39.016Z,81.04
2019-06-08T05:23:03.752Z,81.09
2019-06-08T05:25:35.062Z,79.68
2019-06-08T05:28:06.180Z,80.22
2019-06-08T05:30:37.425Z,79.12
2019-06-08T05:33:08.517Z,79.40
2019-06-08T05:35:39.776Z,79.70
2019-06-08T05:38:10.747Z,79.65
2019-06-08T05:40:42.118Z,80.10
2019-06-08T05:43:13.120Z,79.01
2019-06-08T05:45:45.698Z,80.19
2019-06-08T05:48:16.759Z,79.47
2019-06-08T05:51:00.232Z,79.18
2019-06-08T05:53:20.598Z,79.54
2019-06-08T05:55:52.325Z,78.70
2019-06-08T05:58:23.202Z,79.16
2019-06-08T06:00:53.300Z,78.89
2019-06-08T06:03:24.376Z,78.33
2019-06-08T06:05:55.373Z,78.89
2019-06-08T06:08:26.620Z,78.91
2019-06-08T06:11:00.788Z,80.06
2019-06-08T06:13:31.938Z,78.60
2019-06-08T06:16:03.071Z,77.77
2019-06-08T06:18:34.462Z,78.29
2019-06-08T06:21:11.088Z,78.29
2019-06-08T06:23:38.542Z,77.77
2019-06-08T06:26:09.542Z,77.71
2019-06-08T06:28:43.806Z,77.05
2019-06-08T06:31:14.907Z,76.99
2019-06-08T06:33:45.975Z,76.52
2019-06-08T06:36:17.407Z,76.08
2019-06-08T06:38:50.054Z,76.33
2019-06-08T06:41:21.379Z,75.95
2019-06-08T06:43:52.381Z,75.66
2019-06-08T06:46:23.864Z,75.72
2019-06-08T06:48:54.845Z,77.51
2019-06-08T06:51:26.969Z,77.63
2019-06-08T06:53:57.954Z,77.92
2019-06-08T06:56:29.568Z,77.32
2019-06-08T06:59:00.508Z,76.83
2019-06-08T07:01:32.630Z,76.94
2019-06-08T07:04:03.774Z,76.68
2019-06-08T07:06:34.032Z,76.19
2019-06-08T07:09:06.795Z,75.58
2019-06-08T07:11:37.834Z,75.62
2019-06-08T07:14:09.249Z,73.96
2019-06-08T07:16:40.245Z,74.55
2019-06-08T07:19:14.619Z,73.57
2019-06-08T07:21:46.152Z,73.47
2019-06-08T07:24:17.301Z,72.84
2019-06-08T07:26:48.335Z,73.69
2019-06-08T07:29:19.403Z,72.81
2019-06-08T07:31:51.679Z,72.83
2019-06-08T07:34:23.512Z,72.73
2019-06-08T07:36:55.549Z,71.95
2019-06-08T07:39:26.934Z,71.35
2019-06-08T07:41:57.974Z,72.16
2019-06-08T07:44:28.204Z,71.48
2019-06-08T07:47:00.148Z,71.29
2019-06-08T07:49:31.171Z,69.00
2019-06-08T07:52:10.561Z,69.33
2019-06-08T07:54:40.729Z,68.42
2019-06-08T07:57:14.701Z,65.46
2019-06-08T07:59:45.734Z,64.96
2019-06-08T08:02:17.048Z,61.76
2019-06-08T08:04:48.444Z,60.27
2019-06-08T08:07:19.660Z,58.88
2019-06-08T08:09:50.723Z,58.03
2019-06-08T08:12:21.970Z,58.32
2019-06-08T08:14:53.342Z,57.57
2019-06-08T08:17:23.398Z,57.84
2019-06-08T08:19:55.176Z,56.79
2019-06-08T08:22:29.488Z,57.38
2019-06-08T08:25:03.257Z,57.11
2019-06-08T08:27:32.315Z,56.45
2019-06-08T08:30:05.050Z,56.63
2019-06-08T08:32:38.071Z,54.95
2019-06-08T08:35:09.236Z,54.77
2019-06-08T08:37:40.259Z,52.91
2019-06-08T08:40:12.271Z,51.69
2019-06-08T08:42:43.445Z,51.49
2019-06-08T08:45:15.378Z,50.32
2019-06-08T08:47:48.364Z,48.98
2019-06-08T08:50:19.569Z,48.30
2019-06-08T08:52:51.300Z,48.03
2019-06-08T08:55:22.442Z,48.75
2019-06-08T08:57:54.753Z,46.66
2019-06-08T09:00:27.990Z,46.84
2019-06-08T09:03:13.142Z,46.23
2019-06-08T09:05:33.184Z,42.44
2019-06-08T09:08:08.636Z,41.85
2019-06-08T09:10:40.291Z,42.13
2019-06-08T09:13:12.074Z,41.67
2019-06-08T09:15:43.405Z,42.42
2019-06-08T09:18:14.739Z,43.97
2019-06-08T09:20:47.892Z,44.01
2019-06-08T09:23:21.816Z,44.38
2019-06-08T09:25:53.565Z,44.28
2019-06-08T09:28:24.689Z,43.57
2019-06-08T09:30:56.709Z,43.11
2019-06-08T09:33:28.801Z,42.65
2019-06-08T09:36:02.806Z,42.55
2019-06-08T09:38:32.843Z,42.58
2019-06-08T09:41:05.440Z,42.15
2019-06-08T09:43:38.840Z,43.79
2019-06-08T09:46:09.685Z,43.09
2019-06-08T09:48:40.670Z,42.15
2019-06-08T09:51:12.254Z,41.54
2019-06-08T09:53:43.217Z,40.46
2019-06-08T09:56:14.594Z,40.05
2019-06-08T09:58:45.524Z,41.64
2019-06-08T10:01:18.496Z,40.39
2019-06-08T10:03:49.671Z,40.58
2019-06-08T10:06:21.820Z,39.90
2019-06-08T10:08:54.178Z,38.55
2019-06-08T10:11:24.439Z,37.70
2019-06-08T10:13:59.012Z,37.70
2019-06-08T10:16:30.665Z,38.62
2019-06-08T10:19:03.926Z,35.75
2019-06-08T10:21:34.019Z,37.90
2019-06-08T10:24:08.749Z,38.44
2019-06-08T10:26:38.020Z,37.03
2019-06-08T10:29:10.540Z,35.37
2019-06-08T10:31:43.642Z,35.37
2019-06-08T10:34:14.942Z,33.43
2019-06-08T10:36:46.011Z,35.42
2019-06-08T10:39:20.363Z,35.37
2019-06-08T10:41:53.005Z,34.62
2019-06-08T10:44:23.133Z,35.39
2019-06-08T10:46:54.302Z,36.02
2019-06-08T10:49:27.837Z,35.14
2019-06-08T10:52:01.617Z,32.66
2019-06-08T10:54:33.696Z,31.93
2019-06-08T10:57:07.157Z,32.28
2019-06-08T10:59:40.235Z,32.46
2019-06-08T11:02:14.628Z,32.68
2019-06-08T11:04:48.302Z,32.63
2019-06-08T11:07:18.732Z,31.96
2019-06-08T11:09:59.798Z,31.16
2019-06-08T11:12:31.422Z,32.52
2019-06-08T11:15:09.283Z,32.18
2019-06-08T11:17:39.120Z,31.77
2019-06-08T11:20:11.895Z,31.53
2019-06-08T11:22:43.162Z,29.88
2019-06-08T11:25:16.352Z,29.80
2019-06-08T11:27:47.543Z,31.52
2019-06-08T11:30:24.135Z,30.39
2019-06-08T11:32:52.536Z,31.23
2019-06-08T11:35:23.750Z,30.89
2019-06-08T11:37:54.794Z,29.76
2019-06-08T11:40:27.848Z,31.46
2019-06-08T11:43:00.234Z,31.58
2019-06-08T11:45:31.847Z,29.11
2019-06-08T11:48:04.527Z,30.74
2019-06-08T11:50:41.964Z,30.16
2019-06-08T11:53:14.264Z,29.57
2019-06-08T11:55:44.566Z,29.94
2019-06-08T11:58:21.896Z,30.15
2019-06-08T12:01:04.597Z,29.11
2019-06-08T12:03:34.916Z,29.51
2019-06-08T12:06:14.338Z,29.06
2019-06-08T12:08:47.282Z,31.30
2019-06-08T12:11:19.793Z,31.29
2019-06-08T12:13:50.117Z,30.91
2019-06-08T12:16:24.368Z,29.55
2019-06-08T12:18:58.411Z,31.29
2019-06-08T12:21:28.291Z,32.52
2019-06-08T12:23:59.619Z,31.91
2019-06-08T12:26:30.805Z,29.83
2019-06-08T12:29:02.202Z,28.17
2019-06-08T12:31:33.295Z,29.00
2019-06-08T12:34:05.191Z,28.85
2019-06-08T12:36:37.531Z,29.30
2019-06-08T12:39:10.095Z,28.61
2019-06-08T12:41:41.210Z,27.98
2019-06-08T12:44:15.556Z,28.76
2019-06-08T12:46:48.501Z,27.34
2019-06-08T12:49:20.382Z,26.42
2019-06-08T12:51:51.985Z,28.22
2019-06-08T12:54:23.033Z,30.09
2019-06-08T12:56:54.322Z,29.70
2019-06-08T12:59:25.448Z,28.88
2019-06-08T13:01:58.664Z,28.05
2019-06-08T13:04:29.499Z,28.77
2019-06-08T13:07:01.185Z,27.31
2019-06-08T13:09:32.320Z,26.70
2019-06-08T13:12:03.907Z,27.58
2019-06-08T13:14:34.929Z,27.77
2019-06-08T13:17:08.656Z,29.47
2019-06-08T13:19:40.928Z,29.47
2019-06-08T13:22:11.146Z,28.56
2019-06-08T13:24:43.181Z,26.93
2019-06-08T13:27:15.431Z,25.79
2019-06-08T13:29:48.895Z,27.64
2019-06-08T13:32:21.877Z,26.22
2019-06-08T13:34:53.149Z,26.11
2019-06-08T13:37:24.215Z,25.21
2019-06-08T13:39:55.518Z,25.21
2019-06-08T13:42:27.946Z,26.58
2019-06-08T13:44:59.444Z,27.31
2019-06-08T13:47:30.561Z,24.54
2019-06-08T13:50:02.081Z,25.15
2019-06-08T13:52:33.085Z,25.20
2019-06-08T13:55:09.004Z,25.80
2019-06-08T13:57:40.431Z,26.00
2019-06-08T14:00:11.943Z,25.77
2019-06-08T14:02:44.535Z,27.87
2019-06-08T14:05:24.780Z,27.87
2019-06-08T14:07:51.685Z,29.00
2019-06-08T14:10:34.502Z,29.00
2019-06-08T14:13:06.306Z,28.20
2019-06-08T14:15:38.060Z,28.44
2019-06-08T14:18:09.442Z,27.92
2019-06-08T14:20:40.470Z,26.71
2019-06-08T14:23:11.796Z,26.92
2019-06-08T14:25:50.631Z,27.11
2019-06-08T14:28:19.261Z,26.68
2019-06-08T14:30:48.869Z,25.95
2019-06-08T14:33:25.178Z,26.41
2019-06-08T14:35:55.539Z,26.41
2019-06-08T14:38:34.885Z,27.98
2019-06-08T14:40:59.083Z,28.60
2019-06-08T14:43:31.396Z,28.36
2019-06-08T14:46:02.642Z,28.37
2019-06-08T14:48:34.068Z,26.82
2019-06-08T14:51:05.343Z,26.73
2019-06-08T14:53:38.619Z,26.01
2019-06-08T14:56:09.593Z,25.48
2019-06-08T14:58:40.660Z,26.64
2019-06-08T15:01:12.051Z,26.64
2019-06-08T15:03:43.110Z,26.67
2019-06-08T15:06:14.550Z,26.26
2019-06-08T15:08:50.054Z,26.26
2019-06-08T15:11:19.644Z,27.98
2019-06-08T15:13:50.695Z,27.98
2019-06-08T15:16:21.592Z,28.15
2019-06-08T15:18:52.959Z,26.98
2019-06-08T15:21:25.368Z,26.58
2019-06-08T15:23:58.061Z,26.95
2019-06-08T15:26:39.247Z,26.95
2019-06-08T15:29:02.091Z,26.34
2019-06-08T15:31:33.123Z,25.93
2019-06-08T15:34:04.364Z,25.93
2019-06-08T15:36:35.250Z,24.74
2019-06-08T15:39:07.956Z,24.44
2019-06-08T15:41:38.887Z,24.44
2019-06-08T15:44:10.187Z,26.81
2019-06-08T15:46:41.404Z,26.27
2019-06-08T15:49:11.706Z,25.24
2019-06-08T15:51:43.123Z,26.52
2019-06-08T15:54:14.274Z,26.66
2019-06-08T15:56:49.514Z,27.05
2019-06-08T15:59:18.433Z,27.05
2019-06-08T16:01:49.529Z,27.28
2019-06-08T16:04:20.483Z,27.29
2019-06-08T16:06:51.750Z,27.26
2019-06-08T16:09:23.974Z,26.08
2019-06-08T16:11:55.436Z,26.08
2019-06-08T16:14:26.745Z,25.83
2019-06-08T16:16:58.194Z,24.99
2019-06-08T16:19:29.628Z,25.05
2019-06-08T16:21:59.829Z,25.48
2019-06-08T16:24:31.893Z,26.17
2019-06-08T16:27:02.920Z,27.09
2019-06-08T16:29:35.165Z,27.41
2019-06-08T16:32:06.371Z,28.27
2019-06-08T16:34:37.609Z,27.43
2019-06-08T16:37:10.393Z,27.57
2019-06-08T16:39:41.742Z,27.18
2019-06-08T16:42:12.738Z,28.03
2019-06-08T16:44:44.060Z,26.53
2019-06-08T16:47:15.151Z,27.25
2019-06-08T16:49:46.300Z,26.67
2019-06-08T16:52:20.291Z,26.56
2019-06-08T16:54:50.381Z,27.21
2019-06-08T16:57:21.679Z,28.01
2019-06-08T16:59:52.674Z,28.51
2019-06-08T17:07:23.376Z,27.56
2019-06-08T17:09:54.339Z,28.26
2019-06-08T17:12:25.596Z,28.25
2019-06-08T17:14:56.599Z,27.40
2019-06-08T17:17:27.735Z,27.75
2019-06-08T17:19:58.785Z,27.12
2019-06-08T17:22:30.284Z,27.00
2019-06-08T17:25:01.317Z,27.88
2019-06-08T17:27:34.609Z,28.02
2019-06-08T17:30:08.530Z,27.37
2019-06-08T17:32:40.515Z,27.28
2019-06-08T17:35:12.010Z,26.96
2019-06-08T17:37:43.134Z,27.72
2019-06-08T17:40:14.746Z,28.20
2019-06-08T17:42:45.821Z,28.54
2019-06-08T17:45:18.369Z,28.66
2019-06-08T17:47:49.485Z,28.79
2019-06-08T17:50:22.413Z,29.29
2019-06-08T17:52:53.567Z,29.77
2019-06-08T17:55:25.191Z,30.10
2019-06-08T17:57:56.236Z,29.99
2019-06-08T18:00:27.644Z,30.84
2019-06-08T18:03:00.603Z,30.58
2019-06-08T18:05:30.894Z,31.18
2019-06-08T18:08:02.230Z,31.33
2019-06-08T18:10:34.036Z,31.76
2019-06-08T18:13:07.285Z,31.42
2019-06-08T18:15:39.112Z,31.40
2019-06-08T18:18:11.440Z,31.91
2019-06-08T18:20:43.851Z,32.36
2019-06-08T18:23:18.656Z,32.17
2019-06-08T18:25:50.209Z,32.83
2019-06-08T18:28:21.522Z,32.73
2019-06-08T18:30:53.034Z,33.31
2019-06-08T18:33:24.360Z,34.05
2019-06-08T18:35:57.669Z,34.12
2019-06-08T18:40:58.824Z,35.19
2019-06-08T18:43:28.939Z,35.34
2019-06-08T18:46:00.284Z,35.77
2019-06-08T18:48:31.399Z,36.30
2019-06-08T18:51:04.894Z,36.57
2019-06-08T18:53:49.111Z,37.62
2019-06-08T18:56:08.980Z,37.85
2019-06-08T18:58:40.021Z,38.56
2019-06-08T19:01:11.543Z,38.75
2019-06-08T19:03:45.664Z,39.02
2019-06-08T19:06:18.157Z,39.73
2019-06-08T19:08:57.785Z,39.85
2019-06-08T19:11:24.300Z,40.32
2019-06-08T19:13:57.929Z,40.95
2019-06-08T19:16:29.693Z,41.42
2019-06-08T19:19:00.813Z,41.78
2019-06-08T19:21:30.980Z,42.20
2019-06-08T19:24:02.200Z,42.23
2019-06-08T19:26:33.212Z,42.55
2019-06-08T19:29:04.628Z,43.04
2019-06-08T19:31:38.597Z,43.29
2019-06-08T19:34:08.530Z,43.74
2019-06-08T19:36:41.329Z,44.33
2019-06-08T19:39:12.411Z,44.49
2019-06-08T19:41:44.116Z,44.63
2019-06-08T19:44:15.586Z,44.91
2019-06-08T19:46:51.145Z,44.98
2019-06-08T19:49:20.152Z,45.03
2019-06-08T19:51:53.897Z,45.78
2019-06-08T19:54:22.997Z,46.29
2019-06-08T19:56:54.652Z,45.98
2019-06-08T19:59:27.480Z,47.50
2019-06-08T20:01:59.921Z,46.61
2019-06-08T20:04:31.121Z,47.84
2019-06-08T20:07:02.423Z,47.67
2019-06-08T20:09:33.433Z,47.61
2019-06-08T20:12:04.785Z,48.28
2019-06-08T20:14:37.500Z,48.28
2019-06-08T20:17:08.890Z,48.39
2019-06-08T20:19:42.761Z,49.49
2019-06-08T20:22:14.305Z,49.06
2019-06-08T20:24:47.030Z,50.38
2019-06-08T20:27:18.275Z,49.85
2019-06-08T20:29:51.243Z,50.14
2019-06-08T20:32:21.545Z,50.52
2019-06-08T20:34:53.780Z,50.99
2019-06-08T20:37:27.842Z,51.21
2019-06-08T20:40:09.659Z,51.38
2019-06-08T20:42:32.004Z,51.53
2019-06-08T20:45:04.060Z,52.35
2019-06-08T20:47:36.715Z,51.59
2019-06-08T20:50:08.889Z,51.66
2019-06-08T20:52:39.744Z,51.35
2019-06-08T20:55:11.075Z,51.54
2019-06-08T20:57:43.109Z,52.05
2019-06-08T21:00:14.556Z,51.87
2019-06-08T21:02:46.463Z,52.20
2019-06-08T21:05:19.983Z,52.57
2019-06-08T21:07:55.681Z,52.94
2019-06-08T21:10:28.147Z,53.20
2019-06-08T21:12:59.026Z,52.98
2019-06-08T21:15:29.966Z,53.19
2019-06-08T21:18:04.121Z,53.52
2019-06-08T21:20:37.609Z,54.06
2019-06-08T21:23:09.309Z,54.10
2019-06-08T21:25:40.197Z,54.27
2019-06-08T21:28:11.567Z,54.32
2019-06-08T21:30:42.577Z,54.98
2019-06-08T21:33:13.737Z,54.67
2019-06-08T21:35:44.772Z,56.19
2019-06-08T21:38:23.239Z,55.96
2019-06-08T21:40:50.962Z,56.92
2019-06-08T21:43:20.698Z,57.02
2019-06-08T21:45:53.064Z,58.77
2019-06-08T21:48:24.675Z,59.80
2019-06-08T21:51:01.043Z,59.82
2019-06-08T21:53:31.893Z,60.81
2019-06-08T21:56:03.435Z,62.34
2019-06-08T21:58:34.552Z,62.20
2019-06-08T22:01:07.367Z,62.28
2019-06-08T22:03:40.248Z,62.44
2019-06-08T22:06:12.824Z,62.97
2019-06-08T22:08:43.911Z,63.69
2019-06-08T22:11:17.594Z,64.20
2019-06-08T22:13:47.992Z,64.26
2019-06-08T22:16:19.362Z,64.47
2019-06-08T22:18:51.550Z,65.65
2019-06-08T22:21:22.214Z,66.49
2019-06-08T22:23:55.867Z,66.09
2019-06-08T22:26:28.037Z,66.35
2019-06-08T22:29:00.996Z,65.93
2019-06-08T22:31:32.124Z,66.62
2019-06-08T22:34:04.047Z,68.09
2019-06-08T22:36:37.265Z,68.62
2019-06-08T22:39:08.368Z,69.44
2019-06-08T22:41:39.500Z,70.88
2019-06-08T22:44:10.820Z,69.94
2019-06-08T22:46:41.749Z,70.53
2019-06-08T22:49:15.216Z,71.06
2019-06-08T22:51:47.709Z,71.40
2019-06-08T22:54:18.914Z,71.00
2019-06-08T22:56:50.036Z,72.35
2019-06-08T22:59:20.070Z,72.98
2019-06-08T23:01:51.262Z,74.40
2019-06-08T23:04:22.335Z,74.08
2019-06-08T23:07:29.810Z,75.83
2019-06-08T23:10:08.941Z,76.12
2019-06-08T23:12:39.892Z,75.87
2019-06-08T23:15:11.323Z,77.59
2019-06-08T23:17:42.522Z,77.22
2019-06-08T23:20:14.050Z,76.21
2019-06-08T23:22:47.381Z,77.93
2019-06-08T23:25:18.428Z,77.05
2019-06-08T23:27:49.727Z,76.91
2019-06-08T23:30:20.714Z,75.71
2019-06-08T23:32:52.048Z,76.20
2019-06-08T23:35:23.013Z,76.25
2019-06-08T23:37:54.210Z,78.60
2019-06-08T23:40:27.208Z,79.05
2019-06-08T23:42:58.497Z,79.08
2019-06-08T23:45:30.013Z,78.17
2019-06-08T23:48:01.554Z,77.25
2019-06-08T23:50:34.402Z,79.48
2019-06-08T23:53:09.119Z,79.10
2019-06-08T23:55:38.601Z,79.64
2019-06-08T23:58:11.267Z,79.15
